createdAt,value
2019-02-14T00:00:11.895Z,100255.45
2019-02-14T00:02:40.229Z,100252.82
2019-02-14T00:05:16.198Z,100257.45
2019-02-14T00:07:38.747Z,100248.87
2019-02-14T00:10:09.302Z,100259.69
2019-02-14T00:12:37.981Z,100259.73
2019-02-14T00:15:09.714Z,100261.90
2019-02-14T00:17:38.021Z,100267.09
2019-02-14T00:20:08.679Z,100261.05
2019-02-14T00:22:37.055Z,100257.13
2019-02-14T00:25:07.063Z,100259.35
2019-02-14T00:27:35.454Z,100256.28
2019-02-14T00:30:03.998Z,100262.57
2019-02-14T00:32:32.316Z,100256.88
2019-02-14T00:35:00.621Z,100253.80
2019-02-14T00:37:29.207Z,100256.34
2019-02-14T00:39:57.536Z,100256.78
2019-02-14T00:42:26.233Z,100260.22
2019-02-14T00:44:54.600Z,100267.52
2019-02-14T00:47:23.208Z,100277.86
2019-02-14T00:49:51.509Z,100265.45
2019-02-14T00:52:19.842Z,100275.31
2019-02-14T00:54:48.155Z,100274.44
2019-02-14T00:57:16.495Z,100276.59
2019-02-14T00:59:44.801Z,100277.87
2019-02-14T01:02:13.104Z,100267.97
2019-02-14T01:04:41.775Z,100270.80
2019-02-14T01:07:10.359Z,100263.61
2019-02-14T01:09:38.793Z,100259.67
2019-02-14T01:12:08.341Z,100259.77
2019-02-14T01:14:36.716Z,100260.03
2019-02-14T01:17:05.175Z,100260.98
2019-02-14T01:19:33.485Z,100257.97
2019-02-14T01:22:01.910Z,100264.11
2019-02-14T01:24:30.227Z,100266.58
2019-02-14T01:26:58.529Z,100262.48
2019-02-14T01:29:26.854Z,100254.97
2019-02-14T01:31:55.161Z,100266.75
2019-02-14T01:34:23.569Z,100264.94
2019-02-14T01:36:52.167Z,100271.75
2019-02-14T01:39:20.479Z,100264.91
2019-02-14T01:41:48.808Z,100270.13
2019-02-14T01:44:17.415Z,100280.82
2019-02-14T01:46:45.824Z,100275.29
2019-02-14T01:49:14.133Z,100265.44
2019-02-14T01:51:42.446Z,100259.94
2019-02-14T01:54:10.768Z,100248.47
2019-02-14T01:56:39.426Z,100249.70
2019-02-14T01:59:07.738Z,100246.33
2019-02-14T02:01:36.136Z,100250.84
2019-02-14T02:04:04.892Z,100251.36
2019-02-14T02:06:33.205Z,100259.30
2019-02-14T02:09:01.535Z,100254.00
2019-02-14T02:11:29.910Z,100246.77
2019-02-14T02:13:58.220Z,100245.05
2019-02-14T02:16:26.550Z,100244.16
2019-02-14T02:18:54.862Z,100244.57
2019-02-14T02:21:23.191Z,100246.71
2019-02-14T02:23:51.580Z,100242.43
2019-02-14T02:26:19.889Z,100249.00
2019-02-14T02:28:48.224Z,100258.38
2019-02-14T02:31:16.524Z,100260.09
2019-02-14T02:33:44.916Z,100260.53
2019-02-14T02:36:13.226Z,100271.58
2019-02-14T02:38:41.539Z,100268.17
2019-02-14T02:41:09.853Z,100272.64
2019-02-14T02:43:38.159Z,100282.08
2019-02-14T02:46:06.488Z,100286.27
2019-02-14T02:48:34.803Z,100281.38
2019-02-14T02:51:03.112Z,100275.72
2019-02-14T02:53:31.791Z,100257.86
2019-02-14T02:56:00.097Z,100259.62
2019-02-14T02:58:28.433Z,100258.86
2019-02-14T03:00:56.747Z,100251.94
2019-02-14T03:03:25.067Z,100253.25
2019-02-14T03:05:53.395Z,100250.23
2019-02-14T03:08:21.694Z,100258.88
2019-02-14T03:10:50.017Z,100264.09
2019-02-14T03:13:18.644Z,100267.55
2019-02-14T03:15:47.030Z,100261.94
2019-02-14T03:18:15.359Z,100273.09
2019-02-14T03:20:43.846Z,100279.08
2019-02-14T03:23:13.046Z,100274.37
2019-02-14T03:25:41.370Z,100266.61
2019-02-14T03:28:09.683Z,100272.56
2019-02-14T03:30:38.105Z,100273.37
2019-02-14T03:33:06.425Z,100275.64
2019-02-14T03:35:34.735Z,100282.89
2019-02-14T03:38:03.068Z,100286.30
2019-02-14T03:40:31.377Z,100287.59
2019-02-14T03:42:59.789Z,100294.91
2019-02-14T03:45:28.107Z,100289.64
2019-02-14T03:47:56.422Z,100296.50
2019-02-14T03:50:24.825Z,100289.33
2019-02-14T03:52:53.136Z,100296.50
2019-02-14T03:55:21.497Z,100295.43
2019-02-14T03:57:49.810Z,100304.77
2019-02-14T04:00:18.704Z,100300.97
2019-02-14T04:02:47.410Z,100292.40
2019-02-14T04:05:15.732Z,100305.68
2019-02-14T04:07:44.103Z,100304.05
2019-02-14T04:10:13.974Z,100300.77
2019-02-14T04:12:42.586Z,100301.56
2019-02-14T04:15:16.270Z,100303.44
2019-02-14T04:17:44.578Z,100292.92
2019-02-14T04:20:13.569Z,100293.84
2019-02-14T04:22:41.883Z,100302.45
2019-02-14T04:25:10.559Z,100294.69
2019-02-14T04:27:38.889Z,100299.47
2019-02-14T04:30:10.560Z,100305.33
2019-02-14T04:32:38.898Z,100308.32
2019-02-14T04:35:07.743Z,100307.44
2019-02-14T04:37:36.048Z,100309.66
2019-02-14T04:40:07.666Z,100313.25
2019-02-14T04:42:35.981Z,100316.67
2019-02-14T04:45:06.062Z,100327.86
2019-02-14T04:47:34.374Z,100331.75
2019-02-14T04:50:02.817Z,100333.02
2019-02-14T04:52:31.145Z,100327.31
2019-02-14T04:54:59.918Z,100324.34
2019-02-14T04:57:29.891Z,100321.82
2019-02-14T04:59:58.477Z,100326.70
2019-02-14T05:02:26.784Z,100325.47
2019-02-14T05:04:55.129Z,100328.81
2019-02-14T05:07:23.435Z,100311.48
2019-02-14T05:09:51.741Z,100317.16
2019-02-14T05:12:20.061Z,100307.95
2019-02-14T05:14:48.440Z,100313.17
2019-02-14T05:17:16.793Z,100314.91
2019-02-14T05:19:45.089Z,100314.91
2019-02-14T05:22:13.393Z,100311.09
2019-02-14T05:24:41.730Z,100316.20
2019-02-14T05:27:10.039Z,100311.19
2019-02-14T05:29:38.385Z,100321.45
2019-02-14T05:32:06.684Z,100324.34
2019-02-14T05:34:34.992Z,100321.77
2019-02-14T05:37:03.622Z,100332.09
2019-02-14T05:39:32.316Z,100328.51
2019-02-14T05:42:00.648Z,100329.38
2019-02-14T05:44:29.278Z,100331.06
2019-02-14T05:46:57.587Z,100337.02
2019-02-14T05:49:25.916Z,100334.19
2019-02-14T05:51:54.222Z,100330.31
2019-02-14T05:54:22.583Z,100346.67
2019-02-14T05:56:51.187Z,100351.32
2019-02-14T05:59:19.490Z,100359.06
2019-02-14T06:01:48.154Z,100356.94
2019-02-14T06:04:16.465Z,100347.00
2019-02-14T06:06:44.811Z,100348.53
2019-02-14T06:09:13.116Z,100347.39
2019-02-14T06:11:41.784Z,100353.42
2019-02-14T06:14:10.151Z,100358.61
2019-02-14T06:16:38.457Z,100344.80
2019-02-14T06:19:06.799Z,100357.36
2019-02-14T06:21:35.103Z,100354.59
2019-02-14T06:24:03.410Z,100349.58
2019-02-14T06:26:31.726Z,100351.31
2019-02-14T06:29:00.036Z,100351.73
2019-02-14T06:31:28.378Z,100360.38
2019-02-14T06:33:56.700Z,100364.28
2019-02-14T06:36:25.005Z,100364.23
2019-02-14T06:38:53.674Z,100361.44
2019-02-14T06:41:21.982Z,100369.49
2019-02-14T06:43:50.306Z,100362.42
2019-02-14T06:46:18.616Z,100367.83
2019-02-14T06:48:46.966Z,100379.87
2019-02-14T06:51:15.276Z,100378.50
2019-02-14T06:53:43.582Z,100383.30
2019-02-14T06:56:11.986Z,100386.77
2019-02-14T06:58:40.298Z,100383.73
2019-02-14T07:01:08.636Z,100384.17
2019-02-14T07:03:36.943Z,100386.75
2019-02-14T07:06:05.320Z,100393.23
2019-02-14T07:08:34.236Z,100394.08
2019-02-14T07:11:02.547Z,100396.50
2019-02-14T07:13:30.865Z,100403.28
2019-02-14T07:15:59.398Z,100398.61
2019-02-14T07:18:27.703Z,100397.34
2019-02-14T07:20:56.315Z,100393.52
2019-02-14T07:23:24.961Z,100395.41
2019-02-14T07:25:53.291Z,100397.94
2019-02-14T07:28:21.609Z,100392.72
2019-02-14T07:30:49.954Z,100400.50
2019-02-14T07:33:18.379Z,100399.30
2019-02-14T07:35:46.693Z,100394.14
2019-02-14T07:38:15.024Z,100395.20
2019-02-14T07:40:43.626Z,100402.39
2019-02-14T07:43:11.960Z,100398.61
2019-02-14T07:45:41.335Z,100389.05
2019-02-14T07:48:09.925Z,100399.99
2019-02-14T07:50:38.235Z,100404.61
2019-02-14T07:53:06.549Z,100410.70
2019-02-14T07:55:34.881Z,100403.44
2019-02-14T07:58:03.230Z,100402.63
2019-02-14T08:00:31.572Z,100395.31
2019-02-14T08:03:00.432Z,100395.31
2019-02-14T08:05:28.698Z,100392.34
2019-02-14T08:07:57.025Z,100386.06
2019-02-14T08:10:25.331Z,100398.87
2019-02-14T08:12:54.024Z,100402.73
2019-02-14T08:15:22.331Z,100405.80
2019-02-14T08:17:50.639Z,100400.59
2019-02-14T08:20:21.584Z,100400.58
2019-02-14T08:22:49.941Z,100388.44
2019-02-14T08:25:18.348Z,100380.26
2019-02-14T08:27:46.660Z,100374.67
2019-02-14T08:30:17.983Z,100367.31
2019-02-14T08:32:46.296Z,100375.08
2019-02-14T08:35:14.602Z,100375.75
2019-02-14T08:37:45.817Z,100376.75
2019-02-14T08:40:21.973Z,100384.16
2019-02-14T08:42:50.278Z,100383.30
2019-02-14T08:45:18.606Z,100378.97
2019-02-14T08:47:47.275Z,100375.52
2019-02-14T08:50:15.646Z,100380.28
2019-02-14T08:52:44.020Z,100379.82
2019-02-14T08:55:12.686Z,100388.45
2019-02-14T08:57:41.010Z,100383.03
2019-02-14T09:00:17.062Z,100384.38
2019-02-14T09:02:45.447Z,100388.73
2019-02-14T09:05:14.249Z,100385.86
2019-02-14T09:07:42.606Z,100382.21
2019-02-14T09:10:13.339Z,100387.72
2019-02-14T09:12:41.647Z,100392.70
2019-02-14T09:15:14.651Z,100379.84
2019-02-14T09:17:43.038Z,100381.89
2019-02-14T09:20:19.099Z,100381.11
2019-02-14T09:22:47.410Z,100377.18
2019-02-14T09:25:15.811Z,100379.53
2019-02-14T09:27:44.117Z,100376.03
2019-02-14T09:30:14.804Z,100369.34
2019-02-14T09:32:43.302Z,100364.51
2019-02-14T09:35:11.753Z,100375.83
2019-02-14T09:37:40.084Z,100383.25
2019-02-14T09:40:18.279Z,100376.42
2019-02-14T09:42:46.665Z,100369.61
2019-02-14T09:45:15.146Z,100374.95
2019-02-14T09:47:43.517Z,100371.72
2019-02-14T09:50:13.594Z,100381.66
2019-02-14T09:52:42.371Z,100376.30
2019-02-14T09:55:15.086Z,100384.73
2019-02-14T09:57:43.454Z,100378.94
2019-02-14T10:00:16.880Z,100376.66
2019-02-14T10:02:45.356Z,100366.81
2019-02-14T10:05:15.209Z,100358.13
2019-02-14T10:07:43.590Z,100362.86
2019-02-14T10:10:14.749Z,100368.38
2019-02-14T10:12:43.417Z,100371.17
2019-02-14T10:15:11.912Z,100375.78
2019-02-14T10:17:40.225Z,100359.77
2019-02-14T10:20:14.070Z,100367.55
2019-02-14T10:22:42.378Z,100371.23
2019-02-14T10:25:11.526Z,100368.23
2019-02-14T10:27:39.860Z,100364.94
2019-02-14T10:30:17.243Z,100369.77
2019-02-14T10:32:45.933Z,100364.81
2019-02-14T10:35:14.512Z,100367.02
2019-02-14T10:37:42.983Z,100367.86
2019-02-14T10:40:13.732Z,100359.69
2019-02-14T10:42:42.049Z,100347.41
2019-02-14T10:45:13.113Z,100348.64
2019-02-14T10:47:41.428Z,100337.13
2019-02-14T10:50:11.292Z,100342.51
2019-02-14T10:52:39.670Z,100334.52
2019-02-14T10:55:10.897Z,100322.25
2019-02-14T10:57:39.287Z,100320.88
2019-02-14T11:00:16.278Z,100330.80
2019-02-14T11:02:45.054Z,100329.72
2019-02-14T11:05:15.104Z,100319.15
2019-02-14T11:07:43.501Z,100322.09
2019-02-14T11:10:13.568Z,100314.76
2019-02-14T11:12:41.872Z,100316.70
2019-02-14T11:15:22.070Z,100321.53
2019-02-14T11:17:50.376Z,100307.53
2019-02-14T11:20:19.083Z,100302.58
2019-02-14T11:22:49.046Z,100309.30
2019-02-14T11:25:26.555Z,100304.98
2019-02-14T11:27:54.880Z,100298.41
2019-02-14T11:30:23.185Z,100305.31
2019-02-14T11:32:51.525Z,100298.73
2019-02-14T11:35:19.823Z,100301.52
2019-02-14T11:37:48.117Z,100299.45
2019-02-14T11:40:16.471Z,100302.11
2019-02-14T11:42:45.055Z,100301.34
2019-02-14T11:45:24.163Z,100299.56
2019-02-14T11:47:52.465Z,100299.30
2019-02-14T11:50:21.160Z,100295.74
2019-02-14T11:52:49.461Z,100284.55
2019-02-14T11:55:17.839Z,100284.55
2019-02-14T11:57:46.233Z,100283.33
2019-02-14T12:00:24.315Z,100279.80
2019-02-14T12:02:55.808Z,100282.41
2019-02-14T12:05:22.729Z,100289.23
2019-02-14T12:07:51.051Z,100291.48
2019-02-14T12:10:19.780Z,100279.52
2019-02-14T12:12:48.078Z,100281.39
2019-02-14T12:15:16.464Z,100275.95
2019-02-14T12:17:45.138Z,100271.53
2019-02-14T12:20:15.406Z,100271.97
2019-02-14T12:22:46.505Z,100267.62
2019-02-14T12:25:29.129Z,100269.61
2019-02-14T12:27:57.431Z,100262.42
2019-02-14T12:30:25.806Z,100274.98
2019-02-14T12:32:54.125Z,100265.26
2019-02-14T12:35:22.426Z,100258.59
2019-02-14T12:37:50.772Z,100255.50
2019-02-14T12:40:19.147Z,100251.84
2019-02-14T12:42:47.451Z,100244.47
2019-02-14T12:45:21.529Z,100243.36
2019-02-14T12:47:48.838Z,100229.98
2019-02-14T12:50:17.174Z,100221.73
2019-02-14T12:52:45.480Z,100222.37
2019-02-14T12:55:13.777Z,100221.39
2019-02-14T12:57:42.118Z,100212.39
2019-02-14T13:00:16.254Z,100214.97
2019-02-14T13:02:44.588Z,100203.68
2019-02-14T13:05:12.956Z,100201.78
2019-02-14T13:07:41.255Z,100190.31
2019-02-14T13:10:12.215Z,100200.40
2019-02-14T13:12:40.520Z,100195.64
2019-02-14T13:15:14.805Z,100190.04
2019-02-14T13:17:43.113Z,100190.06
2019-02-14T13:20:11.429Z,100189.47
2019-02-14T13:22:39.820Z,100185.84
2019-02-14T13:25:10.804Z,100194.26
2019-02-14T13:27:39.135Z,100188.90
2019-02-14T13:30:10.910Z,100199.30
2019-02-14T13:32:39.279Z,100200.03
2019-02-14T13:35:08.076Z,100211.11
2019-02-14T13:37:36.374Z,100209.32
2019-02-14T13:40:06.528Z,100213.17
2019-02-14T13:42:34.836Z,100226.51
2019-02-14T13:45:03.137Z,100226.86
2019-02-14T13:47:31.470Z,100230.25
2019-02-14T13:49:59.763Z,100229.19
2019-02-14T13:52:28.173Z,100213.69
2019-02-14T13:54:56.480Z,100206.03
2019-02-14T13:57:24.861Z,100201.05
2019-02-14T13:59:53.190Z,100196.47
2019-02-14T14:02:21.489Z,100190.48
2019-02-14T14:04:49.910Z,100184.58
2019-02-14T14:07:18.202Z,100171.88
2019-02-14T14:09:46.509Z,100163.59
2019-02-14T14:12:14.840Z,100158.66
2019-02-14T14:14:43.143Z,100151.45
2019-02-14T14:17:11.797Z,100134.58
2019-02-14T14:19:40.107Z,100138.52
2019-02-14T14:22:08.761Z,100129.08
2019-02-14T14:24:37.453Z,100133.40
2019-02-14T14:27:06.164Z,100121.45
2019-02-14T14:29:34.504Z,100119.41
2019-02-14T14:32:02.801Z,100117.31
2019-02-14T14:34:31.105Z,100105.60
2019-02-14T14:36:59.429Z,100116.84
2019-02-14T14:39:28.050Z,100108.67
2019-02-14T14:41:56.390Z,100110.95
2019-02-14T14:44:26.354Z,100100.56
2019-02-14T14:46:55.033Z,100090.97
2019-02-14T14:49:23.737Z,100094.61
2019-02-14T14:51:52.043Z,100095.46
2019-02-14T14:54:20.390Z,100099.28
2019-02-14T14:56:48.754Z,100095.01
2019-02-14T14:59:17.060Z,100092.55
2019-02-14T15:01:45.379Z,100091.89
2019-02-14T15:04:13.753Z,100106.14
2019-02-14T15:06:42.081Z,100106.76
2019-02-14T15:09:10.855Z,100118.73
2019-02-14T15:11:39.574Z,100117.05
2019-02-14T15:14:08.263Z,100126.02
2019-02-14T15:16:36.563Z,100125.08
2019-02-14T15:19:04.894Z,100139.41
2019-02-14T15:21:33.315Z,100141.12
2019-02-14T15:24:01.639Z,100142.97
2019-02-14T15:26:29.950Z,100143.70
2019-02-14T15:28:58.272Z,100142.88
2019-02-14T15:31:26.577Z,100138.95
2019-02-14T15:33:55.214Z,100145.97
2019-02-14T15:36:26.542Z,100151.12
2019-02-14T15:38:53.938Z,100151.03
2019-02-14T15:41:22.337Z,100154.38
2019-02-14T15:43:50.644Z,100150.60
2019-02-14T15:46:18.954Z,100147.43
2019-02-14T15:48:47.617Z,100152.11
2019-02-14T15:51:17.784Z,100152.22
2019-02-14T15:53:46.398Z,100155.45
2019-02-14T15:56:14.763Z,100148.60
2019-02-14T15:58:43.057Z,100158.34
2019-02-14T16:01:11.397Z,100153.77
2019-02-14T16:03:40.696Z,100150.13
2019-02-14T16:06:09.768Z,100156.83
2019-02-14T16:08:38.157Z,100142.95
2019-02-14T16:11:06.546Z,100140.55
2019-02-14T16:13:35.165Z,100142.94
2019-02-14T16:16:03.848Z,100140.84
2019-02-14T16:18:32.181Z,100145.48
2019-02-14T16:21:00.811Z,100142.17
2019-02-14T16:23:31.765Z,100143.66
2019-02-14T16:26:00.163Z,100149.20
2019-02-14T16:28:28.527Z,100149.06
2019-02-14T16:30:56.975Z,100153.19
2019-02-14T16:33:25.250Z,100156.02
2019-02-14T16:35:53.555Z,100148.83
2019-02-14T16:38:21.885Z,100150.73
2019-02-14T16:40:51.133Z,100147.47
2019-02-14T16:43:19.458Z,100144.98
2019-02-14T16:45:47.755Z,100144.16
2019-02-14T16:48:16.487Z,100142.80
2019-02-14T16:50:44.852Z,100150.78
2019-02-14T16:53:13.220Z,100149.54
2019-02-14T16:55:41.630Z,100151.83
2019-02-14T16:58:09.933Z,100149.09
2019-02-14T17:00:38.234Z,100150.40
2019-02-14T17:03:06.560Z,100159.34
2019-02-14T17:05:34.855Z,100159.19
2019-02-14T17:08:03.656Z,100155.44
2019-02-14T17:10:37.102Z,100166.73
2019-02-14T17:13:02.048Z,100168.70
2019-02-14T17:15:30.367Z,100172.75
2019-02-14T17:17:58.675Z,100169.37
2019-02-14T17:20:27.020Z,100163.91
2019-02-14T17:22:55.320Z,100167.13
2019-02-14T17:25:23.621Z,100166.40
2019-02-14T17:27:52.240Z,100161.39
2019-02-14T17:30:20.558Z,100154.11
2019-02-14T17:32:48.901Z,100157.71
2019-02-14T17:35:17.207Z,100158.59
2019-02-14T17:37:45.576Z,100162.76
2019-02-14T17:40:14.168Z,100156.20
2019-02-14T17:42:42.476Z,100158.84
2019-02-14T17:45:11.326Z,100154.20
2019-02-14T17:47:39.655Z,100159.02
2019-02-14T17:50:09.102Z,100168.77
2019-02-14T17:52:37.436Z,100171.61
2019-02-14T17:55:08.690Z,100181.24
2019-02-14T17:57:37.094Z,100179.98
2019-02-14T18:00:11.267Z,100176.66
2019-02-14T18:02:39.643Z,100178.27
2019-02-14T18:05:09.315Z,100172.95
2019-02-14T18:07:37.626Z,100174.91
2019-02-14T18:10:09.146Z,100170.45
2019-02-14T18:12:37.657Z,100166.58
2019-02-14T18:15:09.181Z,100159.77
2019-02-14T18:17:37.803Z,100161.84
2019-02-14T18:20:09.664Z,100167.81
2019-02-14T18:22:38.650Z,100172.05
2019-02-14T18:25:13.342Z,100167.41
2019-02-14T18:27:41.654Z,100170.84
2019-02-14T18:30:11.602Z,100171.75
2019-02-14T18:32:39.986Z,100175.08
2019-02-14T18:35:10.470Z,100167.02
2019-02-14T18:37:38.973Z,100168.25
2019-02-14T18:40:11.817Z,100168.77
2019-02-14T18:42:43.468Z,100167.39
2019-02-14T18:45:13.459Z,100162.78
2019-02-14T18:47:42.237Z,100160.02
2019-02-14T18:50:12.391Z,100160.80
2019-02-14T18:52:40.694Z,100163.25
2019-02-14T18:55:10.670Z,100169.09
2019-02-14T18:57:38.979Z,100169.64
2019-02-14T19:00:10.902Z,100172.67
2019-02-14T19:02:39.598Z,100172.28
2019-02-14T19:05:10.376Z,100170.77
2019-02-14T19:07:38.715Z,100168.43
2019-02-14T19:10:12.814Z,100165.44
2019-02-14T19:12:42.258Z,100164.30
2019-02-14T19:15:12.185Z,100153.27
2019-02-14T19:17:40.584Z,100156.71
2019-02-14T19:20:10.747Z,100145.41
2019-02-14T19:22:40.731Z,100140.67
2019-02-14T19:25:09.675Z,100130.93
2019-02-14T19:27:37.979Z,100126.20
2019-02-14T19:30:08.959Z,100124.27
2019-02-14T19:32:37.349Z,100126.27
2019-02-14T19:35:07.908Z,100126.73
2019-02-14T19:37:36.224Z,100131.58
2019-02-14T19:40:06.702Z,100131.53
2019-02-14T19:42:35.309Z,100133.93
2019-02-14T19:45:08.725Z,100139.53
2019-02-14T19:47:37.513Z,100139.47
2019-02-14T19:50:14.080Z,100147.36
2019-02-14T19:52:42.689Z,100149.09
2019-02-14T19:55:11.296Z,100160.61
2019-02-14T19:57:39.589Z,100160.27
2019-02-14T20:00:11.052Z,100162.70
2019-02-14T20:02:42.297Z,100157.31
2019-02-14T20:05:10.779Z,100170.77
2019-02-14T20:07:39.901Z,100168.56
2019-02-14T20:10:10.933Z,100163.02
2019-02-14T20:12:39.353Z,100160.22
2019-02-14T20:15:21.459Z,100154.26
2019-02-14T20:17:49.791Z,100152.92
2019-02-14T20:20:18.103Z,100157.59
2019-02-14T20:22:46.442Z,100155.80
2019-02-14T20:25:20.507Z,100151.00
2019-02-14T20:27:50.021Z,100149.05
2019-02-14T20:30:18.800Z,100151.18
2019-02-14T20:32:47.164Z,100152.94
2019-02-14T20:35:15.506Z,100152.05
2019-02-14T20:37:43.828Z,100146.97
2019-02-14T20:40:12.241Z,100153.45
2019-02-14T20:42:40.544Z,100157.81
2019-02-14T20:45:12.451Z,100154.83
2019-02-14T20:47:40.832Z,100153.88
2019-02-14T20:50:15.171Z,100156.05
2019-02-14T20:52:43.587Z,100159.04
2019-02-14T20:55:25.845Z,100171.18
2019-02-14T20:57:54.254Z,100177.28
2019-02-14T21:00:27.155Z,100179.87
2019-02-14T21:02:55.460Z,100180.14
2019-02-14T21:05:23.784Z,100172.70
2019-02-14T21:07:52.090Z,100179.59
2019-02-14T21:10:20.425Z,100174.80
2019-02-14T21:12:48.791Z,100180.97
2019-02-14T21:15:17.102Z,100183.96
2019-02-14T21:17:45.495Z,100184.39
2019-02-14T21:20:15.827Z,100188.75
2019-02-14T21:22:44.176Z,100200.64
2019-02-14T21:25:13.622Z,100199.76
2019-02-14T21:27:42.293Z,100184.20
2019-02-14T21:30:18.814Z,100178.50
2019-02-14T21:32:47.217Z,100178.05
2019-02-14T21:35:15.669Z,100181.12
2019-02-14T21:37:43.967Z,100175.02
2019-02-14T21:40:15.309Z,100170.64
2019-02-14T21:42:43.630Z,100173.28
2019-02-14T21:45:13.991Z,100178.19
2019-02-14T21:47:42.384Z,100173.36
2019-02-14T21:50:11.933Z,100169.91
2019-02-14T21:52:40.319Z,100169.94
2019-02-14T21:55:10.917Z,100176.83
2019-02-14T21:57:39.583Z,100179.42
2019-02-14T22:00:22.804Z,100176.77
2019-02-14T22:02:51.118Z,100170.41
2019-02-14T22:05:25.056Z,100173.00
2019-02-14T22:07:50.681Z,100168.66
2019-02-14T22:10:19.220Z,100168.67
2019-02-14T22:12:47.630Z,100172.95
2019-02-14T22:15:24.441Z,100175.98
2019-02-14T22:17:52.788Z,100179.01
2019-02-14T22:20:21.876Z,100186.40
2019-02-14T22:22:50.516Z,100179.92
2019-02-14T22:25:18.825Z,100175.61
2019-02-14T22:27:47.194Z,100179.48
2019-02-14T22:30:16.195Z,100188.98
2019-02-14T22:32:45.745Z,100187.67
2019-02-14T22:35:14.561Z,100191.59
2019-02-14T22:37:42.865Z,100195.00
2019-02-14T22:40:13.381Z,100198.91
2019-02-14T22:42:46.976Z,100193.27
2019-02-14T22:45:13.942Z,100196.39
2019-02-14T22:47:42.863Z,100198.56
2019-02-14T22:50:11.514Z,100197.20
2019-02-14T22:52:39.828Z,100192.44
2019-02-14T22:55:10.190Z,100195.05
2019-02-14T22:57:38.503Z,100195.91
2019-02-14T23:00:40.701Z,100192.00
2019-02-14T23:03:09.015Z,100192.00
2019-02-14T23:05:37.664Z,100202.77
2019-02-14T23:08:06.075Z,100203.66
2019-02-14T23:10:34.733Z,100204.97
2019-02-14T23:13:03.043Z,100207.94
2019-02-14T23:15:31.377Z,100218.28
2019-02-14T23:17:59.684Z,100207.65
2019-02-14T23:20:28.593Z,100203.05
2019-02-14T23:22:56.888Z,100207.92
2019-02-14T23:25:25.194Z,100207.92
2019-02-14T23:27:53.524Z,100210.48
2019-02-14T23:30:21.832Z,100212.59
2019-02-14T23:32:50.474Z,100213.13
2019-02-14T23:35:18.779Z,100206.28
2019-02-14T23:37:47.230Z,100206.23
2019-02-14T23:40:15.554Z,100216.58
2019-02-14T23:42:43.864Z,100217.70
2019-02-14T23:45:12.375Z,100214.92
2019-02-14T23:47:40.873Z,100206.36
2019-02-14T23:50:10.822Z,100201.20
2019-02-14T23:52:39.157Z,100201.09
2019-02-14T23:55:10.509Z,100200.70
2019-02-14T23:57:38.823Z,100200.20
